sensor_id;sensor_type;location;lat;lon;timestamp;P1;durP1;ratioP1;P2;durP2;ratioP2
7173;SDS011;3628;48.654;8.932;2023-10-08T00:00:25;4.00;;;2.60;;
7173;SDS011;3628;48.654;8.932;2023-10-08T00:03:10;4.93;;;2.63;;
7173;SDS011;3628;48.654;8.932;2023-10-08T00:05:36;4.60;;;2.77;;
7173;SDS011;3628;48.654;8.932;2023-10-08T00:08:02;5.23;;;2.60;;
7173;SDS011;3628;48.654;8.932;2023-10-08T00:10:33;5.03;;;2.63;;
7173;SDS011;3628;48.654;8.932;2023-10-08T00:13:00;5.97;;;2.73;;
7173;SDS011;3628;48.654;8.932;2023-10-08T00:15:25;5.00;;;2.20;;
7173;SDS011;3628;48.654;8.932;2023-10-08T00:17:51;4.63;;;2.43;;
7173;SDS011;3628;48.654;8.932;2023-10-08T00:20:19;5.73;;;2.70;;
7173;SDS011;3628;48.654;8.932;2023-10-08T00:22:50;3.57;;;2.20;;
7173;SDS011;3628;48.654;8.932;2023-10-08T00:25:20;3.47;;;2.40;;
7173;SDS011;3628;48.654;8.932;2023-10-08T00:27:45;4.60;;;2.50;;
7173;SDS011;3628;48.654;8.932;2023-10-08T00:30:14;4.23;;;2.70;;
7173;SDS011;3628;48.654;8.932;2023-10-08T00:32:43;3.20;;;2.30;;
7173;SDS011;3628;48.654;8.932;2023-10-08T00:35:09;5.93;;;2.40;;
7173;SDS011;3628;48.654;8.932;2023-10-08T00:37:45;6.73;;;2.70;;
7173;SDS011;3628;48.654;8.932;2023-10-08T00:40:13;4.00;;;2.67;;
7173;SDS011;3628;48.654;8.932;2023-10-08T00:42:46;6.20;;;2.57;;
7173;SDS011;3628;48.654;8.932;2023-10-08T00:45:12;4.67;;;2.50;;
7173;SDS011;3628;48.654;8.932;2023-10-08T00:47:41;3.90;;;2.23;;
7173;SDS011;3628;48.654;8.932;2023-10-08T00:50:10;7.07;;;2.73;;
7173;SDS011;3628;48.654;8.932;2023-10-08T00:52:46;5.27;;;2.47;;
7173;SDS011;3628;48.654;8.932;2023-10-08T00:55:26;7.17;;;2.70;;
7173;SDS011;3628;48.654;8.932;2023-10-08T00:57:57;3.67;;;2.63;;
7173;SDS011;3628;48.654;8.932;2023-10-08T01:00:24;3.77;;;2.50;;
7173;SDS011;3628;48.654;8.932;2023-10-08T01:03:02;7.40;;;3.13;;
7173;SDS011;3628;48.654;8.932;2023-10-08T01:05:39;6.77;;;2.50;;
7173;SDS011;3628;48.654;8.932;2023-10-08T01:08:11;4.03;;;2.30;;
7173;SDS011;3628;48.654;8.932;2023-10-08T01:10:43;7.00;;;2.80;;
7173;SDS011;3628;48.654;8.932;2023-10-08T01:13:12;5.37;;;2.50;;
7173;SDS011;3628;48.654;8.932;2023-10-08T01:15:44;3.10;;;2.20;;
7173;SDS011;3628;48.654;8.932;2023-10-08T01:18:13;5.90;;;2.57;;
7173;SDS011;3628;48.654;8.932;2023-10-08T01:20:43;6.10;;;2.67;;
7173;SDS011;3628;48.654;8.932;2023-10-08T01:23:12;6.20;;;2.67;;
7173;SDS011;3628;48.654;8.932;2023-10-08T01:25:47;4.17;;;2.30;;
7173;SDS011;3628;48.654;8.932;2023-10-08T01:28:17;3.93;;;2.50;;
7173;SDS011;3628;48.654;8.932;2023-10-08T01:30:53;4.93;;;2.60;;
7173;SDS011;3628;48.654;8.932;2023-10-08T01:33:29;5.47;;;2.17;;
7173;SDS011;3628;48.654;8.932;2023-10-08T01:35:56;4.50;;;2.50;;
7173;SDS011;3628;48.654;8.932;2023-10-08T01:38:28;4.60;;;2.37;;
7173;SDS011;3628;48.654;8.932;2023-10-08T01:40:55;4.60;;;2.27;;
7173;SDS011;3628;48.654;8.932;2023-10-08T01:43:21;5.33;;;2.40;;
7173;SDS011;3628;48.654;8.932;2023-10-08T01:45:47;4.57;;;2.20;;
7173;SDS011;3628;48.654;8.932;2023-10-08T01:48:17;6.63;;;2.37;;
7173;SDS011;3628;48.654;8.932;2023-10-08T01:50:45;3.00;;;2.10;;
7173;SDS011;3628;48.654;8.932;2023-10-08T01:53:15;4.80;;;2.30;;
7173;SDS011;3628;48.654;8.932;2023-10-08T01:55:41;6.17;;;2.50;;
7173;SDS011;3628;48.654;8.932;2023-10-08T01:58:14;3.50;;;1.93;;
7173;SDS011;3628;48.654;8.932;2023-10-08T02:00:47;4.27;;;2.70;;
7173;SDS011;3628;48.654;8.932;2023-10-08T02:03:14;4.70;;;2.30;;
7173;SDS011;3628;48.654;8.932;2023-10-08T02:05:42;6.33;;;2.33;;
7173;SDS011;3628;48.654;8.932;2023-10-08T02:08:08;3.13;;;2.40;;
7173;SDS011;3628;48.654;8.932;2023-10-08T02:10:36;4.23;;;2.17;;
7173;SDS011;3628;48.654;8.932;2023-10-08T02:13:03;6.10;;;2.23;;
7173;SDS011;3628;48.654;8.932;2023-10-08T02:15:30;6.50;;;2.83;;
7173;SDS011;3628;48.654;8.932;2023-10-08T02:17:55;3.70;;;2.37;;
7173;SDS011;3628;48.654;8.932;2023-10-08T02:20:21;3.50;;;2.10;;
7173;SDS011;3628;48.654;8.932;2023-10-08T02:22:47;6.23;;;2.07;;
7173;SDS011;3628;48.654;8.932;2023-10-08T02:25:16;4.20;;;2.10;;
7173;SDS011;3628;48.654;8.932;2023-10-08T02:27:41;4.50;;;2.30;;
7173;SDS011;3628;48.654;8.932;2023-10-08T02:30:07;3.43;;;1.90;;
7173;SDS011;3628;48.654;8.932;2023-10-08T02:32:35;6.90;;;2.57;;
7173;SDS011;3628;48.654;8.932;2023-10-08T02:35:02;3.20;;;2.10;;
7173;SDS011;3628;48.654;8.932;2023-10-08T02:37:28;4.20;;;2.40;;
7173;SDS011;3628;48.654;8.932;2023-10-08T02:39:53;5.07;;;2.30;;
7173;SDS011;3628;48.654;8.932;2023-10-08T02:42:19;7.53;;;2.30;;
7173;SDS011;3628;48.654;8.932;2023-10-08T02:44:47;4.17;;;2.00;;
7173;SDS011;3628;48.654;8.932;2023-10-08T02:47:12;5.63;;;2.10;;
7173;SDS011;3628;48.654;8.932;2023-10-08T02:49:45;4.43;;;2.50;;
7173;SDS011;3628;48.654;8.932;2023-10-08T02:52:16;8.73;;;2.50;;
7173;SDS011;3628;48.654;8.932;2023-10-08T02:54:42;4.27;;;2.37;;
7173;SDS011;3628;48.654;8.932;2023-10-08T02:57:07;7.60;;;2.50;;
7173;SDS011;3628;48.654;8.932;2023-10-08T02:59:39;3.40;;;2.27;;
7173;SDS011;3628;48.654;8.932;2023-10-08T03:02:09;5.07;;;1.83;;
7173;SDS011;3628;48.654;8.932;2023-10-08T03:04:42;4.17;;;2.30;;
7173;SDS011;3628;48.654;8.932;2023-10-08T03:07:10;6.63;;;2.33;;
7173;SDS011;3628;48.654;8.932;2023-10-08T03:09:46;5.10;;;2.40;;
7173;SDS011;3628;48.654;8.932;2023-10-08T03:12:14;5.20;;;1.87;;
7173;SDS011;3628;48.654;8.932;2023-10-08T03:14:42;11.90;;;2.60;;
7173;SDS011;3628;48.654;8.932;2023-10-08T03:17:15;4.73;;;2.23;;
7173;SDS011;3628;48.654;8.932;2023-10-08T03:19:45;4.93;;;2.00;;
7173;SDS011;3628;48.654;8.932;2023-10-08T03:22:11;5.13;;;2.30;;
7173;SDS011;3628;48.654;8.932;2023-10-08T03:24:37;4.03;;;1.80;;
7173;SDS011;3628;48.654;8.932;2023-10-08T03:27:04;4.17;;;2.17;;
7173;SDS011;3628;48.654;8.932;2023-10-08T03:29:45;5.33;;;2.50;;
7173;SDS011;3628;48.654;8.932;2023-10-08T03:32:12;5.50;;;2.67;;
7173;SDS011;3628;48.654;8.932;2023-10-08T03:34:43;3.87;;;2.30;;
7173;SDS011;3628;48.654;8.932;2023-10-08T03:37:17;5.97;;;2.20;;
7173;SDS011;3628;48.654;8.932;2023-10-08T03:39:54;5.07;;;2.47;;
7173;SDS011;3628;48.654;8.932;2023-10-08T03:42:26;5.80;;;2.37;;
7173;SDS011;3628;48.654;8.932;2023-10-08T03:44:59;5.17;;;2.33;;
7173;SDS011;3628;48.654;8.932;2023-10-08T03:47:34;3.17;;;2.00;;
7173;SDS011;3628;48.654;8.932;2023-10-08T03:50:06;4.13;;;2.37;;
7173;SDS011;3628;48.654;8.932;2023-10-08T03:52:35;5.73;;;2.60;;
7173;SDS011;3628;48.654;8.932;2023-10-08T03:55:06;3.07;;;2.13;;
7173;SDS011;3628;48.654;8.932;2023-10-08T03:57:44;5.13;;;2.10;;
7173;SDS011;3628;48.654;8.932;2023-10-08T04:00:13;8.73;;;2.37;;
7173;SDS011;3628;48.654;8.932;2023-10-08T04:02:44;4.07;;;2.20;;
7173;SDS011;3628;48.654;8.932;2023-10-08T04:05:20;6.13;;;2.40;;
7173;SDS011;3628;48.654;8.932;2023-10-08T04:07:52;4.87;;;2.40;;
7173;SDS011;3628;48.654;8.932;2023-10-08T04:10:24;2.83;;;1.63;;
7173;SDS011;3628;48.654;8.932;2023-10-08T04:13:08;3.80;;;2.20;;
7173;SDS011;3628;48.654;8.932;2023-10-08T04:15:35;3.23;;;2.23;;
7173;SDS011;3628;48.654;8.932;2023-10-08T04:18:05;7.37;;;2.47;;
7173;SDS011;3628;48.654;8.932;2023-10-08T04:20:32;5.43;;;2.43;;
7173;SDS011;3628;48.654;8.932;2023-10-08T04:22:58;6.30;;;1.93;;
7173;SDS011;3628;48.654;8.932;2023-10-08T04:25:27;4.17;;;2.10;;
7173;SDS011;3628;48.654;8.932;2023-10-08T04:27:56;5.87;;;2.37;;
7173;SDS011;3628;48.654;8.932;2023-10-08T04:30:26;4.00;;;2.10;;
7173;SDS011;3628;48.654;8.932;2023-10-08T04:32:59;6.23;;;1.87;;
7173;SDS011;3628;48.654;8.932;2023-10-08T04:35:38;3.57;;;2.10;;
7173;SDS011;3628;48.654;8.932;2023-10-08T04:38:15;8.00;;;2.63;;
7173;SDS011;3628;48.654;8.932;2023-10-08T04:40:46;7.80;;;2.50;;
7173;SDS011;3628;48.654;8.932;2023-10-08T04:43:18;5.33;;;2.23;;
7173;SDS011;3628;48.654;8.932;2023-10-08T04:45:59;4.50;;;2.10;;
7173;SDS011;3628;48.654;8.932;2023-10-08T04:48:43;5.27;;;2.33;;
7173;SDS011;3628;48.654;8.932;2023-10-08T04:51:09;4.80;;;2.20;;
7173;SDS011;3628;48.654;8.932;2023-10-08T04:53:38;4.07;;;2.27;;
7173;SDS011;3628;48.654;8.932;2023-10-08T04:56:08;4.60;;;2.40;;
7173;SDS011;3628;48.654;8.932;2023-10-08T04:58:42;5.37;;;2.47;;
7173;SDS011;3628;48.654;8.932;2023-10-08T05:01:11;4.13;;;2.13;;
7173;SDS011;3628;48.654;8.932;2023-10-08T05:03:47;4.90;;;2.43;;
7173;SDS011;3628;48.654;8.932;2023-10-08T05:06:32;5.80;;;2.57;;
7173;SDS011;3628;48.654;8.932;2023-10-08T05:09:05;4.70;;;2.13;;
7173;SDS011;3628;48.654;8.932;2023-10-08T05:11:51;6.10;;;2.27;;
7173;SDS011;3628;48.654;8.932;2023-10-08T05:14:18;5.20;;;1.80;;
7173;SDS011;3628;48.654;8.932;2023-10-08T05:16:58;5.83;;;2.40;;
7173;SDS011;3628;48.654;8.932;2023-10-08T05:19:28;6.43;;;2.20;;
7173;SDS011;3628;48.654;8.932;2023-10-08T05:22:09;4.23;;;2.00;;
7173;SDS011;3628;48.654;8.932;2023-10-08T05:24:59;4.47;;;2.37;;
7173;SDS011;3628;48.654;8.932;2023-10-08T05:27:36;6.73;;;2.23;;
7173;SDS011;3628;48.654;8.932;2023-10-08T05:30:28;6.97;;;2.80;;
7173;SDS011;3628;48.654;8.932;2023-10-08T05:33:07;4.30;;;2.20;;
7173;SDS011;3628;48.654;8.932;2023-10-08T05:35:50;5.57;;;2.17;;
7173;SDS011;3628;48.654;8.932;2023-10-08T05:38:22;4.17;;;2.17;;
7173;SDS011;3628;48.654;8.932;2023-10-08T05:40:52;3.90;;;2.20;;
7173;SDS011;3628;48.654;8.932;2023-10-08T05:43:28;4.10;;;2.63;;
7173;SDS011;3628;48.654;8.932;2023-10-08T05:46:00;4.17;;;2.10;;
7173;SDS011;3628;48.654;8.932;2023-10-08T05:48:45;5.57;;;2.30;;
7173;SDS011;3628;48.654;8.932;2023-10-08T05:51:16;4.87;;;2.20;;
7173;SDS011;3628;48.654;8.932;2023-10-08T05:53:59;6.20;;;2.13;;
7173;SDS011;3628;48.654;8.932;2023-10-08T05:56:28;4.50;;;2.33;;
7173;SDS011;3628;48.654;8.932;2023-10-08T05:58:54;4.53;;;2.00;;
7173;SDS011;3628;48.654;8.932;2023-10-08T06:01:39;3.53;;;2.37;;
7173;SDS011;3628;48.654;8.932;2023-10-08T06:04:06;3.83;;;2.10;;
7173;SDS011;3628;48.654;8.932;2023-10-08T06:06:50;5.27;;;2.10;;
7173;SDS011;3628;48.654;8.932;2023-10-08T06:09:36;4.57;;;2.17;;
7173;SDS011;3628;48.654;8.932;2023-10-08T06:12:02;5.30;;;2.00;;
7173;SDS011;3628;48.654;8.932;2023-10-08T06:14:44;6.50;;;2.27;;
7173;SDS011;3628;48.654;8.932;2023-10-08T06:17:29;3.43;;;2.10;;
7173;SDS011;3628;48.654;8.932;2023-10-08T06:20:21;7.90;;;2.20;;
7173;SDS011;3628;48.654;8.932;2023-10-08T06:22:50;6.83;;;2.40;;
7173;SDS011;3628;48.654;8.932;2023-10-08T06:25:19;5.90;;;2.07;;
7173;SDS011;3628;48.654;8.932;2023-10-08T06:27:48;6.10;;;2.17;;
7173;SDS011;3628;48.654;8.932;2023-10-08T06:30:19;4.43;;;2.47;;
7173;SDS011;3628;48.654;8.932;2023-10-08T06:32:44;7.03;;;2.37;;
7173;SDS011;3628;48.654;8.932;2023-10-08T06:35:10;6.10;;;2.23;;
7173;SDS011;3628;48.654;8.932;2023-10-08T06:37:43;3.83;;;2.10;;
7173;SDS011;3628;48.654;8.932;2023-10-08T06:40:14;2.97;;;2.17;;
7173;SDS011;3628;48.654;8.932;2023-10-08T06:42:59;4.47;;;2.33;;
7173;SDS011;3628;48.654;8.932;2023-10-08T06:45:35;7.53;;;2.53;;
7173;SDS011;3628;48.654;8.932;2023-10-08T06:48:01;6.03;;;2.03;;
7173;SDS011;3628;48.654;8.932;2023-10-08T06:50:31;3.03;;;1.90;;
7173;SDS011;3628;48.654;8.932;2023-10-08T06:53:00;4.13;;;2.37;;
7173;SDS011;3628;48.654;8.932;2023-10-08T06:55:32;5.63;;;2.10;;
7173;SDS011;3628;48.654;8.932;2023-10-08T06:58:02;6.03;;;2.30;;
7173;SDS011;3628;48.654;8.932;2023-10-08T07:00:33;6.03;;;2.20;;
7173;SDS011;3628;48.654;8.932;2023-10-08T07:03:11;3.93;;;2.27;;
7173;SDS011;3628;48.654;8.932;2023-10-08T07:05:40;8.23;;;2.73;;
7173;SDS011;3628;48.654;8.932;2023-10-08T07:08:07;6.00;;;2.30;;
7173;SDS011;3628;48.654;8.932;2023-10-08T07:10:33;6.67;;;2.77;;
7173;SDS011;3628;48.654;8.932;2023-10-08T07:13:02;7.03;;;2.70;;
7173;SDS011;3628;48.654;8.932;2023-10-08T07:15:28;6.00;;;2.90;;
7173;SDS011;3628;48.654;8.932;2023-10-08T07:17:55;6.90;;;2.47;;
7173;SDS011;3628;48.654;8.932;2023-10-08T07:20:21;3.50;;;2.30;;
7173;SDS011;3628;48.654;8.932;2023-10-08T07:22:47;3.87;;;2.50;;
7173;SDS011;3628;48.654;8.932;2023-10-08T07:25:22;7.33;;;4.27;;
7173;SDS011;3628;48.654;8.932;2023-10-08T07:27:48;5.47;;;3.20;;
7173;SDS011;3628;48.654;8.932;2023-10-08T07:30:14;4.50;;;2.47;;
7173;SDS011;3628;48.654;8.932;2023-10-08T07:32:51;6.60;;;3.00;;
7173;SDS011;3628;48.654;8.932;2023-10-08T07:35:19;4.30;;;2.70;;
7173;SDS011;3628;48.654;8.932;2023-10-08T07:37:45;5.77;;;2.80;;
7173;SDS011;3628;48.654;8.932;2023-10-08T07:40:12;4.35;;;2.55;;
7173;SDS011;3628;48.654;8.932;2023-10-08T07:42:39;5.90;;;2.45;;
7173;SDS011;3628;48.654;8.932;2023-10-08T07:45:05;5.53;;;2.33;;
7173;SDS011;3628;48.654;8.932;2023-10-08T07:47:32;2.95;;;2.00;;
7173;SDS011;3628;48.654;8.932;2023-10-08T07:49:57;6.07;;;2.40;;
7173;SDS011;3628;48.654;8.932;2023-10-08T07:52:24;6.53;;;2.58;;
7173;SDS011;3628;48.654;8.932;2023-10-08T07:54:50;5.60;;;2.20;;
7173;SDS011;3628;48.654;8.932;2023-10-08T07:57:15;5.18;;;2.47;;
7173;SDS011;3628;48.654;8.932;2023-10-08T07:59:46;5.13;;;3.13;;
7173;SDS011;3628;48.654;8.932;2023-10-08T08:02:11;5.15;;;2.35;;
7173;SDS011;3628;48.654;8.932;2023-10-08T08:04:38;5.38;;;2.53;;
7173;SDS011;3628;48.654;8.932;2023-10-08T08:07:05;5.90;;;2.17;;
7173;SDS011;3628;48.654;8.932;2023-10-08T08:09:31;5.38;;;2.38;;
7173;SDS011;3628;48.654;8.932;2023-10-08T08:12:03;4.88;;;2.42;;
7173;SDS011;3628;48.654;8.932;2023-10-08T08:14:35;5.60;;;2.20;;
7173;SDS011;3628;48.654;8.932;2023-10-08T08:17:03;3.85;;;1.75;;
7173;SDS011;3628;48.654;8.932;2023-10-08T08:19:39;3.97;;;2.45;;
7173;SDS011;3628;48.654;8.932;2023-10-08T08:22:18;3.85;;;2.33;;
7173;SDS011;3628;48.654;8.932;2023-10-08T08:24:51;4.80;;;2.45;;
7173;SDS011;3628;48.654;8.932;2023-10-08T08:27:28;7.03;;;2.47;;
7173;SDS011;3628;48.654;8.932;2023-10-08T08:29:57;4.50;;;2.42;;
7173;SDS011;3628;48.654;8.932;2023-10-08T08:32:35;4.05;;;2.38;;
7173;SDS011;3628;48.654;8.932;2023-10-08T08:35:04;5.43;;;2.35;;
7173;SDS011;3628;48.654;8.932;2023-10-08T08:37:32;3.42;;;2.25;;
7173;SDS011;3628;48.654;8.932;2023-10-08T08:40:01;5.88;;;2.45;;
7173;SDS011;3628;48.654;8.932;2023-10-08T08:42:35;4.90;;;2.33;;
7173;SDS011;3628;48.654;8.932;2023-10-08T08:45:05;4.20;;;2.38;;
7173;SDS011;3628;48.654;8.932;2023-10-08T08:47:37;6.25;;;2.38;;
7173;SDS011;3628;48.654;8.932;2023-10-08T08:50:06;6.68;;;2.33;;
7173;SDS011;3628;48.654;8.932;2023-10-08T08:52:39;6.25;;;2.35;;
7173;SDS011;3628;48.654;8.932;2023-10-08T08:55:05;3.72;;;2.35;;
7173;SDS011;3628;48.654;8.932;2023-10-08T08:57:39;7.78;;;3.42;;
7173;SDS011;3628;48.654;8.932;2023-10-08T09:00:11;3.50;;;2.13;;
7173;SDS011;3628;48.654;8.932;2023-10-08T09:02:38;5.95;;;2.63;;
7173;SDS011;3628;48.654;8.932;2023-10-08T09:05:04;6.10;;;2.40;;
7173;SDS011;3628;48.654;8.932;2023-10-08T09:07:57;5.13;;;2.45;;
7173;SDS011;3628;48.654;8.932;2023-10-08T09:10:29;3.40;;;1.95;;
7173;SDS011;3628;48.654;8.932;2023-10-08T09:12:58;4.72;;;2.40;;
7173;SDS011;3628;48.654;8.932;2023-10-08T09:15:28;5.07;;;2.70;;
7173;SDS011;3628;48.654;8.932;2023-10-08T09:17:54;5.85;;;2.35;;
7173;SDS011;3628;48.654;8.932;2023-10-08T09:20:25;3.55;;;2.30;;
7173;SDS011;3628;48.654;8.932;2023-10-08T09:23:05;6.10;;;2.47;;
7173;SDS011;3628;48.654;8.932;2023-10-08T09:25:42;4.50;;;2.20;;
7173;SDS011;3628;48.654;8.932;2023-10-08T09:28:08;7.43;;;2.72;;
7173;SDS011;3628;48.654;8.932;2023-10-08T09:30:37;7.55;;;2.67;;
7173;SDS011;3628;48.654;8.932;2023-10-08T09:33:08;4.53;;;2.33;;
7173;SDS011;3628;48.654;8.932;2023-10-08T09:35:35;10.15;;;2.95;;
7173;SDS011;3628;48.654;8.932;2023-10-08T09:38:04;6.50;;;2.65;;
7173;SDS011;3628;48.654;8.932;2023-10-08T09:40:37;8.77;;;2.72;;
7173;SDS011;3628;48.654;8.932;2023-10-08T09:43:06;6.00;;;2.58;;
7173;SDS011;3628;48.654;8.932;2023-10-08T09:45:34;3.78;;;2.13;;
7173;SDS011;3628;48.654;8.932;2023-10-08T09:48:01;6.45;;;2.72;;
7173;SDS011;3628;48.654;8.932;2023-10-08T09:50:31;5.72;;;2.47;;
7173;SDS011;3628;48.654;8.932;2023-10-08T09:53:12;6.65;;;2.30;;
7173;SDS011;3628;48.654;8.932;2023-10-08T09:55:45;6.30;;;2.92;;
7173;SDS011;3628;48.654;8.932;2023-10-08T09:58:16;7.00;;;2.78;;
7173;SDS011;3628;48.654;8.932;2023-10-08T10:00:42;6.38;;;2.80;;
7173;SDS011;3628;48.654;8.932;2023-10-08T10:03:09;4.25;;;2.47;;
7173;SDS011;3628;48.654;8.932;2023-10-08T10:05:37;8.60;;;3.25;;
7173;SDS011;3628;48.654;8.932;2023-10-08T10:08:03;6.13;;;2.75;;
7173;SDS011;3628;48.654;8.932;2023-10-08T10:10:35;7.38;;;2.50;;
7173;SDS011;3628;48.654;8.932;2023-10-08T10:13:05;6.10;;;2.20;;
7173;SDS011;3628;48.654;8.932;2023-10-08T10:15:35;5.25;;;2.67;;
7173;SDS011;3628;48.654;8.932;2023-10-08T10:20:39;7.18;;;2.80;;
7173;SDS011;3628;48.654;8.932;2023-10-08T10:23:56;8.18;;;2.67;;
7173;SDS011;3628;48.654;8.932;2023-10-08T10:31:39;8.85;;;2.47;;
7173;SDS011;3628;48.654;8.932;2023-10-08T10:34:13;5.60;;;2.58;;
7173;SDS011;3628;48.654;8.932;2023-10-08T10:36:44;6.28;;;2.90;;
7173;SDS011;3628;48.654;8.932;2023-10-08T10:39:14;7.90;;;2.47;;
7173;SDS011;3628;48.654;8.932;2023-10-08T10:41:51;5.53;;;2.88;;
7173;SDS011;3628;48.654;8.932;2023-10-08T10:44:27;9.60;;;3.05;;
7173;SDS011;3628;48.654;8.932;2023-10-08T10:46:55;7.38;;;2.85;;
7173;SDS011;3628;48.654;8.932;2023-10-08T10:49:40;5.35;;;2.47;;
7173;SDS011;3628;48.654;8.932;2023-10-08T10:52:20;4.40;;;2.30;;
7173;SDS011;3628;48.654;8.932;2023-10-08T10:55:22;9.55;;;2.75;;
7173;SDS011;3628;48.654;8.932;2023-10-08T10:57:56;6.63;;;2.60;;
7173;SDS011;3628;48.654;8.932;2023-10-08T11:00:29;5.18;;;2.72;;
7173;SDS011;3628;48.654;8.932;2023-10-08T11:02:58;11.82;;;3.08;;
7173;SDS011;3628;48.654;8.932;2023-10-08T11:05:31;8.88;;;2.47;;
7173;SDS011;3628;48.654;8.932;2023-10-08T11:08:04;7.95;;;2.58;;
7173;SDS011;3628;48.654;8.932;2023-10-08T11:10:38;5.25;;;2.60;;
7173;SDS011;3628;48.654;8.932;2023-10-08T11:13:08;9.65;;;2.55;;
7173;SDS011;3628;48.654;8.932;2023-10-08T11:15:40;9.65;;;2.72;;
7173;SDS011;3628;48.654;8.932;2023-10-08T11:18:08;6.75;;;2.90;;
7173;SDS011;3628;48.654;8.932;2023-10-08T11:20:35;5.35;;;2.83;;
7173;SDS011;3628;48.654;8.932;2023-10-08T11:26:01;7.95;;;2.33;;
7173;SDS011;3628;48.654;8.932;2023-10-08T11:28:29;8.07;;;2.70;;
7173;SDS011;3628;48.654;8.932;2023-10-08T11:31:05;9.48;;;2.80;;
7173;SDS011;3628;48.654;8.932;2023-10-08T11:33:35;9.00;;;2.70;;
7173;SDS011;3628;48.654;8.932;2023-10-08T11:36:04;6.57;;;2.65;;
7173;SDS011;3628;48.654;8.932;2023-10-08T11:38:39;8.50;;;3.00;;
7173;SDS011;3628;48.654;8.932;2023-10-08T11:41:10;9.82;;;3.42;;
7173;SDS011;3628;48.654;8.932;2023-10-08T11:43:45;12.60;;;3.17;;
7173;SDS011;3628;48.654;8.932;2023-10-08T11:46:27;8.95;;;2.38;;
7173;SDS011;3628;48.654;8.932;2023-10-08T11:48:57;9.50;;;2.75;;
7173;SDS011;3628;48.654;8.932;2023-10-08T11:51:29;9.35;;;2.90;;
7173;SDS011;3628;48.654;8.932;2023-10-08T11:53:58;7.00;;;3.13;;
7173;SDS011;3628;48.654;8.932;2023-10-08T11:56:25;9.43;;;3.10;;
7173;SDS011;3628;48.654;8.932;2023-10-08T11:58:52;7.88;;;2.67;;
7173;SDS011;3628;48.654;8.932;2023-10-08T12:01:21;7.05;;;2.58;;
7173;SDS011;3628;48.654;8.932;2023-10-08T12:03:48;5.47;;;2.90;;
7173;SDS011;3628;48.654;8.932;2023-10-08T12:06:15;8.00;;;2.65;;
7173;SDS011;3628;48.654;8.932;2023-10-08T12:08:43;8.98;;;3.22;;
7173;SDS011;3628;48.654;8.932;2023-10-08T12:11:15;8.43;;;2.55;;
7173;SDS011;3628;48.654;8.932;2023-10-08T12:13:41;11.60;;;3.03;;
7173;SDS011;3628;48.654;8.932;2023-10-08T12:16:13;13.43;;;3.10;;
7173;SDS011;3628;48.654;8.932;2023-10-08T12:18:48;10.93;;;2.60;;
7173;SDS011;3628;48.654;8.932;2023-10-08T12:21:18;6.95;;;2.80;;
7173;SDS011;3628;48.654;8.932;2023-10-08T12:23:46;5.30;;;2.75;;
7173;SDS011;3628;48.654;8.932;2023-10-08T12:26:14;6.85;;;2.83;;
7173;SDS011;3628;48.654;8.932;2023-10-08T12:28:46;8.75;;;2.88;;
7173;SDS011;3628;48.654;8.932;2023-10-08T12:31:18;13.93;;;3.10;;
7173;SDS011;3628;48.654;8.932;2023-10-08T12:33:48;8.43;;;2.72;;
7173;SDS011;3628;48.654;8.932;2023-10-08T12:36:22;8.88;;;3.15;;
7173;SDS011;3628;48.654;8.932;2023-10-08T12:38:48;10.35;;;3.00;;
7173;SDS011;3628;48.654;8.932;2023-10-08T12:41:14;5.88;;;3.00;;
7173;SDS011;3628;48.654;8.932;2023-10-08T12:43:43;6.80;;;2.83;;
7173;SDS011;3628;48.654;8.932;2023-10-08T12:46:11;5.97;;;2.75;;
7173;SDS011;3628;48.654;8.932;2023-10-08T12:48:44;9.05;;;2.95;;
7173;SDS011;3628;48.654;8.932;2023-10-08T12:51:12;13.63;;;3.17;;
7173;SDS011;3628;48.654;8.932;2023-10-08T12:53:39;9.82;;;2.55;;
7173;SDS011;3628;48.654;8.932;2023-10-08T12:56:06;9.05;;;2.70;;
7173;SDS011;3628;48.654;8.932;2023-10-08T12:58:39;6.60;;;2.58;;
7173;SDS011;3628;48.654;8.932;2023-10-08T13:01:10;8.82;;;2.35;;
7173;SDS011;3628;48.654;8.932;2023-10-08T13:03:39;10.57;;;2.95;;
7173;SDS011;3628;48.654;8.932;2023-10-08T13:06:13;12.18;;;3.38;;
7173;SDS011;3628;48.654;8.932;2023-10-08T13:08:54;11.30;;;2.83;;
7173;SDS011;3628;48.654;8.932;2023-10-08T13:11:20;6.93;;;3.20;;
7173;SDS011;3628;48.654;8.932;2023-10-08T13:16:17;7.47;;;2.80;;
7173;SDS011;3628;48.654;8.932;2023-10-08T13:18:43;9.52;;;3.28;;
7173;SDS011;3628;48.654;8.932;2023-10-08T13:21:09;10.32;;;2.95;;
7173;SDS011;3628;48.654;8.932;2023-10-08T13:23:35;6.72;;;2.60;;
7173;SDS011;3628;48.654;8.932;2023-10-08T13:26:01;9.13;;;3.13;;
7173;SDS011;3628;48.654;8.932;2023-10-08T13:28:32;11.85;;;2.88;;
7173;SDS011;3628;48.654;8.932;2023-10-08T13:31:01;10.65;;;2.60;;
7173;SDS011;3628;48.654;8.932;2023-10-08T13:33:36;11.43;;;2.78;;
7173;SDS011;3628;48.654;8.932;2023-10-08T13:36:04;8.38;;;3.08;;
7173;SDS011;3628;48.654;8.932;2023-10-08T13:38:33;9.75;;;3.20;;
7173;SDS011;3628;48.654;8.932;2023-10-08T13:41:03;9.18;;;3.05;;
7173;SDS011;3628;48.654;8.932;2023-10-08T13:43:34;9.88;;;3.15;;
7173;SDS011;3628;48.654;8.932;2023-10-08T13:46:04;11.02;;;2.72;;
7173;SDS011;3628;48.654;8.932;2023-10-08T13:48:32;7.18;;;2.70;;
7173;SDS011;3628;48.654;8.932;2023-10-08T13:51:00;9.70;;;3.30;;
7173;SDS011;3628;48.654;8.932;2023-10-08T13:53:31;7.30;;;2.55;;
7173;SDS011;3628;48.654;8.932;2023-10-08T13:55:57;7.00;;;2.67;;
7173;SDS011;3628;48.654;8.932;2023-10-08T13:58:27;12.15;;;3.35;;
7173;SDS011;3628;48.654;8.932;2023-10-08T14:00:56;11.05;;;3.25;;
7173;SDS011;3628;48.654;8.932;2023-10-08T14:03:25;13.05;;;2.80;;
7173;SDS011;3628;48.654;8.932;2023-10-08T14:05:51;6.22;;;2.72;;
7173;SDS011;3628;48.654;8.932;2023-10-08T14:08:17;9.82;;;3.45;;
7173;SDS011;3628;48.654;8.932;2023-10-08T14:10:44;9.38;;;2.95;;
7173;SDS011;3628;48.654;8.932;2023-10-08T14:13:10;11.30;;;3.50;;
7173;SDS011;3628;48.654;8.932;2023-10-08T14:15:36;11.02;;;2.85;;
7173;SDS011;3628;48.654;8.932;2023-10-08T14:18:10;8.57;;;2.63;;
7173;SDS011;3628;48.654;8.932;2023-10-08T14:20:39;10.95;;;3.05;;
7173;SDS011;3628;48.654;8.932;2023-10-08T14:23:06;11.20;;;3.33;;
7173;SDS011;3628;48.654;8.932;2023-10-08T14:25:31;10.13;;;2.72;;
7173;SDS011;3628;48.654;8.932;2023-10-08T14:27:59;16.02;;;3.60;;
7173;SDS011;3628;48.654;8.932;2023-10-08T14:30:30;14.73;;;2.90;;
7173;SDS011;3628;48.654;8.932;2023-10-08T14:32:58;10.40;;;2.60;;
7173;SDS011;3628;48.654;8.932;2023-10-08T14:35:23;8.10;;;2.60;;
7173;SDS011;3628;48.654;8.932;2023-10-08T14:38:08;10.85;;;3.38;;
7173;SDS011;3628;48.654;8.932;2023-10-08T14:40:52;9.45;;;2.65;;
7173;SDS011;3628;48.654;8.932;2023-10-08T14:43:36;7.30;;;2.50;;
7173;SDS011;3628;48.654;8.932;2023-10-08T14:46:02;13.00;;;2.78;;
7173;SDS011;3628;48.654;8.932;2023-10-08T14:48:31;16.48;;;2.95;;
7173;SDS011;3628;48.654;8.932;2023-10-08T14:51:00;17.08;;;3.03;;
7173;SDS011;3628;48.654;8.932;2023-10-08T14:53:27;15.27;;;3.28;;
7173;SDS011;3628;48.654;8.932;2023-10-08T14:55:53;9.52;;;2.80;;
7173;SDS011;3628;48.654;8.932;2023-10-08T14:58:19;10.95;;;3.03;;
7173;SDS011;3628;48.654;8.932;2023-10-08T15:00:44;11.73;;;3.40;;
7173;SDS011;3628;48.654;8.932;2023-10-08T15:03:10;8.88;;;2.55;;
7173;SDS011;3628;48.654;8.932;2023-10-08T15:05:37;14.15;;;3.00;;
7173;SDS011;3628;48.654;8.932;2023-10-08T15:08:05;10.98;;;3.03;;
7173;SDS011;3628;48.654;8.932;2023-10-08T15:10:35;10.52;;;3.22;;
7173;SDS011;3628;48.654;8.932;2023-10-08T15:13:00;11.02;;;2.95;;
7173;SDS011;3628;48.654;8.932;2023-10-08T15:15:26;14.90;;;2.95;;
7173;SDS011;3628;48.654;8.932;2023-10-08T15:17:59;11.35;;;3.00;;
7173;SDS011;3628;48.654;8.932;2023-10-08T15:20:27;11.30;;;2.97;;
7173;SDS011;3628;48.654;8.932;2023-10-08T15:22:57;12.25;;;3.28;;
7173;SDS011;3628;48.654;8.932;2023-10-08T15:25:22;13.45;;;2.92;;
7173;SDS011;3628;48.654;8.932;2023-10-08T15:27:48;13.77;;;3.28;;
7173;SDS011;3628;48.654;8.932;2023-10-08T15:30:14;7.05;;;2.95;;
7173;SDS011;3628;48.654;8.932;2023-10-08T15:32:42;14.25;;;3.25;;
7173;SDS011;3628;48.654;8.932;2023-10-08T15:35:09;8.80;;;3.17;;
7173;SDS011;3628;48.654;8.932;2023-10-08T15:37:37;11.70;;;3.45;;
7173;SDS011;3628;48.654;8.932;2023-10-08T15:40:03;10.27;;;3.00;;
7173;SDS011;3628;48.654;8.932;2023-10-08T15:42:33;12.65;;;3.72;;
7173;SDS011;3628;48.654;8.932;2023-10-08T15:45:00;14.38;;;3.22;;
7173;SDS011;3628;48.654;8.932;2023-10-08T15:47:27;16.23;;;4.00;;